createdAt,value
2018-04-08T00:01:10.717Z,100157.14
2018-04-08T00:03:38.209Z,100155.70
2018-04-08T00:06:06.614Z,100149.64
2018-04-08T00:12:04.234Z,100147.19
2018-04-08T00:14:31.751Z,100148.22
2018-04-08T00:16:59.252Z,100141.39
2018-04-08T00:19:26.741Z,100139.63
2018-04-08T00:21:54.236Z,100136.05
2018-04-08T00:24:21.735Z,100137.73
2018-04-08T00:26:49.239Z,100133.91
2018-04-08T00:29:16.719Z,100140.43
2018-04-08T00:31:44.221Z,100131.82
2018-04-08T00:34:11.775Z,100129.29
2018-04-08T00:36:39.269Z,100127.66
2018-04-08T00:39:06.776Z,100128.87
2018-04-08T00:41:34.273Z,100121.01
2018-04-08T00:44:01.805Z,100124.45
2018-04-08T00:46:29.306Z,100120.55
2018-04-08T00:48:56.825Z,100118.56
2018-04-08T00:51:24.776Z,100118.95
2018-04-08T00:54:06.774Z,100120.03
2018-04-08T00:56:34.296Z,100126.97
2018-04-08T00:59:01.809Z,100123.88
2018-04-08T01:01:29.304Z,100121.45
2018-04-08T01:03:56.814Z,100120.80
2018-04-08T01:06:24.312Z,100124.49
2018-04-08T01:08:51.835Z,100117.70
2018-04-08T01:11:19.332Z,100121.17
2018-04-08T01:13:46.833Z,100123.67
2018-04-08T01:16:14.314Z,100121.34
2018-04-08T01:18:41.835Z,100121.69
2018-04-08T01:21:09.335Z,100117.91
2018-04-08T01:23:36.809Z,100113.05
2018-04-08T01:26:04.298Z,100117.41
2018-04-08T01:28:31.820Z,100108.84
2018-04-08T01:30:59.340Z,100107.14
2018-04-08T01:33:26.837Z,100115.97
2018-04-08T01:35:54.314Z,100119.77
2018-04-08T01:38:21.835Z,100122.87
2018-04-08T01:40:49.334Z,100122.30
2018-04-08T01:43:16.828Z,100117.83
2018-04-08T01:45:44.319Z,100112.58
2018-04-08T01:48:11.841Z,100112.83
2018-04-08T01:50:39.327Z,100115.36
2018-04-08T01:53:06.832Z,100112.73
2018-04-08T01:55:34.349Z,100113.09
2018-04-08T01:58:01.852Z,100108.45
2018-04-08T02:00:29.360Z,100102.50
2018-04-08T02:02:56.854Z,100101.36
2018-04-08T02:05:24.340Z,100104.84
2018-04-08T02:07:51.885Z,100102.64
2018-04-08T02:10:19.422Z,100100.09
2018-04-08T02:12:46.928Z,100094.73
2018-04-08T02:15:14.432Z,100100.88
2018-04-08T02:17:41.912Z,100099.35
2018-04-08T02:20:09.446Z,100095.63
2018-04-08T02:22:36.937Z,100087.41
2018-04-08T02:25:04.432Z,100088.88
2018-04-08T02:27:31.912Z,100091.87
2018-04-08T02:29:59.456Z,100087.72
2018-04-08T02:32:26.957Z,100094.75
2018-04-08T02:34:54.472Z,100092.68
2018-04-08T02:37:21.988Z,100090.95
2018-04-08T02:39:49.491Z,100095.14
2018-04-08T02:42:17.016Z,100083.33
2018-04-08T02:44:44.502Z,100086.76
2018-04-08T02:47:11.996Z,100080.33
2018-04-08T02:49:39.494Z,100078.66
2018-04-08T02:52:06.967Z,100082.11
2018-04-08T02:54:34.473Z,100084.20
2018-04-08T02:57:01.960Z,100078.38
2018-04-08T02:59:29.437Z,100081.74
2018-04-08T03:01:56.934Z,100078.02
2018-04-08T03:04:24.407Z,100076.95
2018-04-08T03:06:51.896Z,100074.45
2018-04-08T03:09:19.404Z,100082.70
2018-04-08T03:11:46.927Z,100076.89
2018-04-08T03:14:14.405Z,100076.34
2018-04-08T03:16:41.900Z,100078.97
2018-04-08T03:19:09.400Z,100081.88
2018-04-08T03:21:36.881Z,100074.78
2018-04-08T03:24:04.374Z,100077.27
2018-04-08T03:26:31.890Z,100074.64
2018-04-08T03:28:59.387Z,100074.06
2018-04-08T03:31:26.898Z,100076.23
2018-04-08T03:33:54.417Z,100076.35
2018-04-08T03:36:21.907Z,100074.14
2018-04-08T03:38:49.424Z,100077.98
2018-04-08T03:41:16.902Z,100072.73
2018-04-08T03:43:44.393Z,100067.70
2018-04-08T03:46:11.935Z,100063.47
2018-04-08T03:48:39.407Z,100069.03
2018-04-08T03:51:06.906Z,100064.75
2018-04-08T03:53:34.425Z,100064.73
2018-04-08T03:56:01.924Z,100066.39
2018-04-08T03:58:29.406Z,100059.73
2018-04-08T04:00:56.922Z,100058.53
2018-04-08T04:03:24.461Z,100056.78
2018-04-08T04:05:51.950Z,100048.67
2018-04-08T04:08:19.468Z,100056.38
2018-04-08T04:10:46.971Z,100049.19
2018-04-08T04:13:14.449Z,100046.28
2018-04-08T04:15:41.944Z,100042.50
2018-04-08T04:18:21.176Z,100043.75
2018-04-08T04:21:00.339Z,100045.44
2018-04-08T04:23:39.597Z,100047.52
2018-04-08T04:26:15.701Z,100045.03
2018-04-08T04:28:43.178Z,100043.34
2018-04-08T04:31:10.700Z,100041.64
2018-04-08T04:33:38.831Z,100049.31
2018-04-08T04:36:06.348Z,100052.31
2018-04-08T04:38:33.859Z,100046.78
2018-04-08T04:41:01.360Z,100047.66
2018-04-08T04:43:28.864Z,100045.16
2018-04-08T04:45:56.354Z,100049.89
2018-04-08T04:48:23.831Z,100049.03
2018-04-08T04:50:51.346Z,100051.58
2018-04-08T04:53:18.864Z,100047.40
2018-04-08T04:55:46.378Z,100047.72
2018-04-08T04:58:13.859Z,100049.28
2018-04-08T05:00:41.345Z,100049.30
2018-04-08T05:03:08.852Z,100045.84
2018-04-08T05:05:36.329Z,100045.33
2018-04-08T05:08:03.836Z,100050.39
2018-04-08T05:10:31.827Z,100050.00
2018-04-08T05:12:59.735Z,100048.76
2018-04-08T05:15:27.460Z,100038.05
2018-04-08T05:17:54.970Z,100050.28
2018-04-08T05:20:22.497Z,100051.16
2018-04-08T05:22:50.054Z,100049.01
2018-04-08T05:25:17.603Z,100052.71
2018-04-08T05:27:45.121Z,100058.86
2018-04-08T05:30:12.698Z,100068.25
2018-04-08T05:32:40.197Z,100057.78
2018-04-08T05:35:07.727Z,100056.31
2018-04-08T05:37:35.339Z,100056.49
2018-04-08T05:40:02.850Z,100060.11
2018-04-08T05:42:30.334Z,100046.87
2018-04-08T05:44:57.824Z,100054.78
2018-04-08T05:47:25.338Z,100055.84
2018-04-08T05:49:52.833Z,100053.42
2018-04-08T05:52:27.938Z,100055.52
2018-04-08T05:54:55.440Z,100042.86
2018-04-08T05:57:22.949Z,100053.13
2018-04-08T05:59:52.260Z,100051.27
2018-04-08T06:02:24.397Z,100045.05
2018-04-08T06:04:51.954Z,100050.23
2018-04-08T06:07:19.542Z,100048.28
2018-04-08T06:09:47.122Z,100045.44
2018-04-08T06:12:14.664Z,100050.02
2018-04-08T06:14:47.292Z,100048.73
2018-04-08T06:17:17.085Z,100048.33
2018-04-08T06:19:44.560Z,100055.56
2018-04-08T06:22:12.065Z,100055.39
2018-04-08T06:24:41.445Z,100051.76
2018-04-08T06:27:08.938Z,100054.91
2018-04-08T06:29:36.482Z,100045.34
2018-04-08T06:32:03.980Z,100051.23
2018-04-08T06:34:31.853Z,100052.34
2018-04-08T06:36:59.425Z,100053.22
2018-04-08T06:39:26.987Z,100044.91
2018-04-08T06:41:54.505Z,100051.25
2018-04-08T06:44:22.001Z,100052.11
2018-04-08T06:46:49.510Z,100049.33
2018-04-08T06:49:17.095Z,100055.33
2018-04-08T06:51:46.317Z,100050.61
2018-04-08T06:54:13.815Z,100053.78
2018-04-08T06:56:41.332Z,100047.11
2018-04-08T06:59:10.835Z,100050.45
2018-04-08T07:01:43.102Z,100055.49
2018-04-08T07:04:10.643Z,100050.58
2018-04-08T07:06:38.209Z,100047.14
2018-04-08T07:09:05.746Z,100043.16
2018-04-08T07:11:33.240Z,100045.57
2018-04-08T07:14:00.721Z,100047.53
2018-04-08T07:16:28.917Z,100042.17
2018-04-08T07:18:56.444Z,100038.47
2018-04-08T07:21:27.548Z,100038.08
2018-04-08T07:23:55.051Z,100042.14
2018-04-08T07:26:22.546Z,100041.38
2018-04-08T07:28:50.103Z,100040.47
2018-04-08T07:31:17.602Z,100039.55
2018-04-08T07:33:45.099Z,100027.73
2018-04-08T07:36:12.598Z,100036.64
2018-04-08T07:38:40.071Z,100033.00
2018-04-08T07:41:07.610Z,100031.27
2018-04-08T07:43:35.124Z,100029.95
2018-04-08T07:46:02.686Z,100037.45
2018-04-08T07:48:30.230Z,100033.61
2018-04-08T07:50:57.831Z,100039.02
2018-04-08T07:53:25.381Z,100038.36
2018-04-08T07:55:52.958Z,100026.25
2018-04-08T07:58:20.499Z,100028.38
2018-04-08T08:00:48.021Z,100029.66
2018-04-08T08:03:15.527Z,100028.45
2018-04-08T08:05:43.036Z,100020.72
2018-04-08T08:08:10.571Z,100022.14
2018-04-08T08:10:38.114Z,100021.75
2018-04-08T08:13:05.650Z,100019.09
2018-04-08T08:15:33.157Z,100021.86
2018-04-08T08:18:00.658Z,100016.37
2018-04-08T08:20:28.159Z,100021.06
2018-04-08T08:22:55.737Z,100008.70
2018-04-08T08:25:23.247Z,100012.70
2018-04-08T08:27:50.751Z,100008.31
2018-04-08T08:30:18.263Z,100009.13
2018-04-08T08:32:45.813Z,100019.55
2018-04-08T08:35:13.306Z,100008.89
2018-04-08T08:37:40.916Z,100005.60
2018-04-08T08:40:08.427Z,100007.23
2018-04-08T08:42:35.949Z,100008.98
2018-04-08T08:45:04.277Z,100010.02
2018-04-08T08:47:31.803Z,100001.81
2018-04-08T08:49:59.338Z,100003.59
2018-04-08T08:52:26.842Z,100006.98
2018-04-08T08:54:54.383Z,99998.34
2018-04-08T08:57:21.885Z,100004.48
2018-04-08T08:59:49.390Z,100000.22
2018-04-08T09:02:16.888Z,99997.94
2018-04-08T09:04:44.376Z,100005.10
2018-04-08T09:07:11.878Z,100001.48
2018-04-08T09:09:39.386Z,100005.42
2018-04-08T09:12:06.905Z,99999.35
2018-04-08T09:14:34.435Z,100000.92
2018-04-08T09:17:01.931Z,100003.89
2018-04-08T09:19:33.964Z,100000.72
2018-04-08T09:22:03.408Z,99998.97
2018-04-08T09:24:41.758Z,99995.91
2018-04-08T09:27:09.248Z,100005.27
2018-04-08T09:29:36.768Z,99998.31
2018-04-08T09:32:04.235Z,99999.06
2018-04-08T09:34:31.760Z,99996.80
2018-04-08T09:36:59.271Z,99996.45
2018-04-08T09:39:26.793Z,99995.41
2018-04-08T09:41:54.327Z,100001.25
2018-04-08T09:44:21.815Z,99993.49
2018-04-08T09:46:49.434Z,99996.10
2018-04-08T09:49:16.925Z,100002.26
2018-04-08T09:51:44.421Z,100005.34
2018-04-08T09:54:11.951Z,100002.50
2018-04-08T09:56:39.434Z,99994.67
2018-04-08T09:59:06.960Z,99993.65
2018-04-08T10:04:37.442Z,99997.46
2018-04-08T10:07:04.933Z,99994.31
2018-04-08T10:09:32.491Z,99987.65
2018-04-08T10:11:59.998Z,99987.94
2018-04-08T10:14:27.486Z,99991.34
2018-04-08T10:16:54.990Z,99985.28
2018-04-08T10:19:22.505Z,99982.97
2018-04-08T10:21:50.020Z,99985.19
2018-04-08T10:24:17.527Z,99980.00
2018-04-08T10:26:45.044Z,99978.83
2018-04-08T10:29:12.597Z,99983.22
2018-04-08T10:31:40.054Z,99977.19
2018-04-08T10:34:07.551Z,99970.83
2018-04-08T10:36:35.061Z,99978.33
2018-04-08T10:39:02.546Z,99985.99
2018-04-08T10:41:30.043Z,99978.06
2018-04-08T10:43:57.551Z,99978.86
2018-04-08T10:46:25.079Z,99975.73
2018-04-08T10:48:52.574Z,99972.52
2018-04-08T10:51:20.073Z,99974.27
2018-04-08T10:53:48.075Z,99971.80
2018-04-08T10:56:15.576Z,99974.42
2018-04-08T10:58:43.254Z,99977.33
2018-04-08T11:01:11.249Z,99971.77
2018-04-08T11:03:38.788Z,99967.27
2018-04-08T11:06:06.303Z,99973.27
2018-04-08T11:08:33.819Z,99975.16
2018-04-08T11:11:01.332Z,99956.23
2018-04-08T11:13:28.817Z,99964.03
2018-04-08T11:15:56.335Z,99968.50
2018-04-08T11:18:23.846Z,99961.72
2018-04-08T11:20:51.341Z,99965.23
2018-04-08T11:23:18.817Z,99959.67
2018-04-08T11:25:46.358Z,99965.23
2018-04-08T11:28:13.990Z,99962.30
2018-04-08T11:30:41.502Z,99956.23
2018-04-08T11:33:08.988Z,99948.27
2018-04-08T11:35:36.498Z,99945.57
2018-04-08T11:38:03.997Z,99958.38
2018-04-08T11:40:31.498Z,99947.30
2018-04-08T11:42:59.001Z,99953.22
2018-04-08T11:45:26.533Z,99952.14
2018-04-08T11:47:54.035Z,99948.59
2018-04-08T11:50:21.569Z,99946.94
2018-04-08T11:52:49.050Z,99944.36
2018-04-08T11:55:16.549Z,99942.95
2018-04-08T11:57:44.052Z,99938.48
2018-04-08T12:00:11.589Z,99930.77
2018-04-08T12:02:39.102Z,99932.42
2018-04-08T12:05:06.600Z,99925.22
2018-04-08T12:07:34.078Z,99927.43
2018-04-08T12:10:01.570Z,99918.59
2018-04-08T12:12:29.078Z,99930.29
2018-04-08T12:14:56.608Z,99921.86
2018-04-08T12:17:24.063Z,99916.96
2018-04-08T12:19:51.568Z,99926.32
2018-04-08T12:22:19.080Z,99924.54
2018-04-08T12:24:46.558Z,99923.48
2018-04-08T12:27:14.967Z,99918.16
2018-04-08T12:29:42.461Z,99917.69
2018-04-08T12:32:09.990Z,99912.54
2018-04-08T12:34:37.494Z,99907.28
2018-04-08T12:37:05.014Z,99906.25
2018-04-08T12:39:32.508Z,99908.05
2018-04-08T12:42:00.156Z,99912.66
2018-04-08T12:44:27.650Z,99903.52
2018-04-08T12:46:55.153Z,99889.07
2018-04-08T12:49:22.676Z,99894.16
2018-04-08T12:51:50.251Z,99886.91
2018-04-08T12:54:17.690Z,99893.72
2018-04-08T12:56:45.177Z,99890.33
2018-04-08T12:59:12.674Z,99881.38
2018-04-08T13:01:40.441Z,99888.11
2018-04-08T13:04:07.926Z,99891.23
2018-04-08T13:06:35.429Z,99887.34
2018-04-08T13:09:02.941Z,99884.55
2018-04-08T13:11:30.448Z,99884.17
2018-04-08T13:13:57.939Z,99886.50
2018-04-08T13:16:25.449Z,99881.16
2018-04-08T13:18:53.026Z,99878.48
2018-04-08T13:21:20.512Z,99877.85
2018-04-08T13:23:48.050Z,99871.39
2018-04-08T13:26:15.548Z,99869.84
2018-04-08T13:28:43.063Z,99866.73
2018-04-08T13:31:10.729Z,99858.92
2018-04-08T13:33:38.256Z,99868.79
2018-04-08T13:36:05.761Z,99861.31
2018-04-08T13:38:33.283Z,99854.39
2018-04-08T13:41:00.783Z,99853.70
2018-04-08T13:43:28.257Z,99853.11
2018-04-08T13:45:55.850Z,99858.64
2018-04-08T13:48:23.348Z,99854.83
2018-04-08T13:50:50.860Z,99840.87
2018-04-08T13:53:18.368Z,99845.72
2018-04-08T13:55:45.882Z,99846.44
2018-04-08T13:58:13.393Z,99847.47
2018-04-08T14:00:40.884Z,99849.42
2018-04-08T14:03:08.394Z,99837.88
2018-04-08T14:05:35.920Z,99840.06
2018-04-08T14:08:03.422Z,99842.39
2018-04-08T14:10:30.930Z,99838.94
2018-04-08T14:12:58.430Z,99831.77
2018-04-08T14:15:25.925Z,99828.77
2018-04-08T14:17:53.466Z,99830.94
2018-04-08T14:20:20.959Z,99829.61
2018-04-08T14:22:48.559Z,99843.27
2018-04-08T14:25:16.311Z,99826.67
2018-04-08T14:27:43.850Z,99827.47
2018-04-08T14:30:11.354Z,99826.13
2018-04-08T14:32:38.856Z,99836.03
2018-04-08T14:35:06.364Z,99823.25
2018-04-08T14:37:33.863Z,99821.92
2018-04-08T14:40:01.372Z,99824.63
2018-04-08T14:42:28.865Z,99832.67
2018-04-08T14:44:56.436Z,99819.48
2018-04-08T14:47:23.978Z,99829.83
2018-04-08T14:49:51.536Z,99828.31
2018-04-08T14:52:19.124Z,99826.29
2018-04-08T14:54:46.636Z,99823.16
2018-04-08T14:57:14.220Z,99822.20
2018-04-08T14:59:41.714Z,99814.76
2018-04-08T15:02:09.246Z,99816.55
2018-04-08T15:04:36.766Z,99822.45
2018-04-08T15:07:04.275Z,99812.77
2018-04-08T15:09:31.806Z,99815.70
2018-04-08T15:11:59.371Z,99815.91
2018-04-08T15:14:26.861Z,99818.45
2018-04-08T15:16:54.369Z,99815.91
2018-04-08T15:19:21.852Z,99804.70
2018-04-08T15:21:49.342Z,99806.02
2018-04-08T15:24:16.854Z,99808.45
2018-04-08T15:26:44.364Z,99812.27
2018-04-08T15:29:11.904Z,99807.00
2018-04-08T15:31:39.443Z,99821.85
2018-04-08T15:34:07.024Z,99815.50
2018-04-08T15:36:34.547Z,99809.52
2018-04-08T15:39:02.123Z,99808.95
2018-04-08T15:41:29.639Z,99810.37
2018-04-08T15:43:57.130Z,99810.37
2018-04-08T15:46:24.602Z,99814.12
2018-04-08T15:48:52.119Z,99811.20
2018-04-08T15:51:19.671Z,99818.74
2018-04-08T15:53:47.462Z,99818.20
2018-04-08T15:56:17.031Z,99825.63
2018-04-08T15:58:46.392Z,99820.97
2018-04-08T16:01:14.138Z,99829.37
2018-04-08T16:03:42.793Z,99829.50
2018-04-08T16:06:10.997Z,99821.29
2018-04-08T16:08:40.925Z,99817.35
2018-04-08T16:11:08.944Z,99824.58
2018-04-08T16:13:36.464Z,99817.93
2018-04-08T16:16:03.939Z,99823.22
2018-04-08T16:18:31.429Z,99818.09
2018-04-08T16:20:59.053Z,99822.91
2018-04-08T16:23:26.552Z,99832.06
2018-04-08T16:25:54.056Z,99821.86
2018-04-08T16:28:21.654Z,99814.05
2018-04-08T16:30:49.153Z,99824.30
2018-04-08T16:33:16.696Z,99821.80
2018-04-08T16:35:44.251Z,99821.51
2018-04-08T16:38:11.744Z,99818.66
2018-04-08T16:40:39.245Z,99828.06
2018-04-08T16:43:06.749Z,99823.41
2018-04-08T16:45:34.253Z,99824.08
2018-04-08T16:48:01.779Z,99825.32
2018-04-08T16:50:29.270Z,99816.31
2018-04-08T16:52:56.844Z,99824.03
2018-04-08T16:55:24.344Z,99833.66
2018-04-08T16:57:51.856Z,99817.69
2018-04-08T17:00:19.379Z,99821.58
2018-04-08T17:02:46.884Z,99814.95
2018-04-08T17:05:14.415Z,99811.63
2018-04-08T17:07:41.906Z,99815.73
2018-04-08T17:10:09.428Z,99821.78
2018-04-08T17:12:36.913Z,99807.39
2018-04-08T17:15:04.393Z,99811.80
2018-04-08T17:17:31.909Z,99802.08
2018-04-08T17:19:59.419Z,99802.11
2018-04-08T17:22:26.959Z,99809.02
2018-04-08T17:24:54.502Z,99809.36
2018-04-08T17:27:22.052Z,99802.92
2018-04-08T17:29:49.592Z,99808.89
2018-04-08T17:32:17.129Z,99812.48
2018-04-08T17:34:44.638Z,99815.47
2018-04-08T17:37:12.156Z,99814.70
2018-04-08T17:39:39.646Z,99817.20
2018-04-08T17:42:07.146Z,99825.31
2018-04-08T17:44:34.670Z,99824.03
2018-04-08T17:47:02.179Z,99825.03
2018-04-08T17:49:29.751Z,99823.33
2018-04-08T17:51:57.267Z,99830.41
2018-04-08T17:54:24.787Z,99831.03
2018-04-08T17:56:52.268Z,99840.63
2018-04-08T17:59:19.792Z,99837.37
2018-04-08T18:01:47.351Z,99841.84
2018-04-08T18:04:14.841Z,99855.25
2018-04-08T18:06:42.323Z,99856.48
2018-04-08T18:09:09.830Z,99853.94
2018-04-08T18:11:37.321Z,99851.81
2018-04-08T18:14:04.885Z,99854.81
2018-04-08T18:16:32.414Z,99855.73
2018-04-08T18:18:59.910Z,99862.16
2018-04-08T18:21:27.644Z,99864.47
2018-04-08T18:23:55.144Z,99856.63
2018-04-08T18:26:22.651Z,99867.25
2018-04-08T18:28:50.608Z,99870.30
2018-04-08T18:31:18.106Z,99875.14
2018-04-08T18:33:45.626Z,99879.25
2018-04-08T18:36:13.143Z,99873.33
2018-04-08T18:38:41.183Z,99881.39
2018-04-08T18:41:08.775Z,99880.58
2018-04-08T18:43:36.347Z,99879.87
2018-04-08T18:46:03.856Z,99880.63
2018-04-08T18:48:31.420Z,99874.31
2018-04-08T18:50:58.942Z,99875.13
2018-04-08T18:53:26.483Z,99879.65
2018-04-08T18:55:53.996Z,99875.67
2018-04-08T18:58:21.498Z,99877.02
2018-04-08T19:00:49.018Z,99870.73
2018-04-08T19:03:16.573Z,99884.93
2018-04-08T19:05:44.093Z,99883.58
2018-04-08T19:08:11.586Z,99881.40
2018-04-08T19:10:39.339Z,99877.05
2018-04-08T19:13:06.872Z,99873.36
2018-04-08T19:15:34.509Z,99879.33
2018-04-08T19:18:02.977Z,99880.27
2018-04-08T19:20:31.115Z,99878.61
2018-04-08T19:22:58.659Z,99873.19
2018-04-08T19:25:26.295Z,99871.78
2018-04-08T19:27:53.842Z,99869.84
2018-04-08T19:30:22.071Z,99868.20
2018-04-08T19:32:49.610Z,99873.27
2018-04-08T19:35:17.104Z,99876.98
2018-04-08T19:37:44.646Z,99864.64
2018-04-08T19:40:12.215Z,99867.50
2018-04-08T19:42:39.903Z,99865.42
2018-04-08T19:45:07.576Z,99854.48
2018-04-08T19:47:35.102Z,99857.16
2018-04-08T19:50:02.616Z,99860.46
2018-04-08T19:52:30.142Z,99862.67
2018-04-08T19:54:57.622Z,99858.97
2018-04-08T19:57:25.509Z,99859.14
2018-04-08T19:59:53.146Z,99862.66
2018-04-08T20:02:20.659Z,99860.61
2018-04-08T20:04:48.291Z,99850.16
2018-04-08T20:07:15.788Z,99854.48
2018-04-08T20:09:43.289Z,99862.12
2018-04-08T20:12:10.825Z,99857.95
2018-04-08T20:14:38.377Z,99851.63
2018-04-08T20:17:05.882Z,99859.48
2018-04-08T20:19:33.891Z,99859.83
2018-04-08T20:22:01.590Z,99863.49
2018-04-08T20:24:29.889Z,99863.23
2018-04-08T20:26:57.415Z,99861.39
2018-04-08T20:29:24.930Z,99864.95
2018-04-08T20:31:52.564Z,99855.79
2018-04-08T20:34:20.291Z,99870.26
2018-04-08T20:36:47.790Z,99867.69
2018-04-08T20:39:15.293Z,99857.99
2018-04-08T20:41:42.793Z,99853.88
2018-04-08T20:44:10.309Z,99854.30
2018-04-08T20:46:37.822Z,99851.41
2018-04-08T20:49:05.387Z,99853.00
2018-04-08T20:51:32.852Z,99852.71
2018-04-08T20:54:00.373Z,99853.53
2018-04-08T20:56:27.896Z,99854.56
2018-04-08T20:58:55.436Z,99855.84
2018-04-08T21:01:22.928Z,99851.64
2018-04-08T21:03:50.441Z,99855.67
2018-04-08T21:06:17.946Z,99848.26
2018-04-08T21:08:45.458Z,99849.60
2018-04-08T21:11:12.942Z,99849.66
2018-04-08T21:13:40.940Z,99846.72
2018-04-08T21:16:08.461Z,99845.72
2018-04-08T21:18:35.984Z,99848.53
2018-04-08T21:21:03.485Z,99849.67
2018-04-08T21:23:31.050Z,99848.50
2018-04-08T21:25:58.517Z,99847.55
2018-04-08T21:28:26.022Z,99849.52
2018-04-08T21:30:53.622Z,99847.44
2018-04-08T21:33:21.123Z,99847.69
2018-04-08T21:35:48.641Z,99850.01
2018-04-08T21:38:16.160Z,99844.00
2018-04-08T21:40:43.660Z,99848.70
2018-04-08T21:43:11.179Z,99851.00
2018-04-08T21:45:38.665Z,99847.42
2018-04-08T21:48:06.157Z,99843.98
2018-04-08T21:50:33.642Z,99844.08
2018-04-08T21:53:01.211Z,99845.95
2018-04-08T21:55:28.706Z,99844.48
2018-04-08T21:57:56.236Z,99835.48
2018-04-08T22:00:23.736Z,99839.89
2018-04-08T22:02:51.218Z,99839.20
2018-04-08T22:05:18.725Z,99837.33
2018-04-08T22:07:46.265Z,99832.43
2018-04-08T22:10:13.780Z,99833.30
2018-04-08T22:12:41.282Z,99829.80
2018-04-08T22:15:08.769Z,99827.80
2018-04-08T22:17:36.262Z,99824.72
2018-04-08T22:20:03.751Z,99821.28
2018-04-08T22:22:31.251Z,99827.89
2018-04-08T22:24:58.759Z,99816.13
2018-04-08T22:27:26.260Z,99814.42
2018-04-08T22:29:53.782Z,99813.05
2018-04-08T22:32:21.300Z,99808.52
2018-04-08T22:34:48.808Z,99808.61
2018-04-08T22:37:16.297Z,99803.74
2018-04-08T22:39:43.794Z,99805.67
2018-04-08T22:42:11.284Z,99811.16
2018-04-08T22:44:38.772Z,99807.41
2018-04-08T22:47:06.280Z,99811.08
2018-04-08T22:49:33.806Z,99809.52
2018-04-08T22:52:01.327Z,99809.61
2018-04-08T22:54:28.809Z,99814.07
2018-04-08T22:56:56.325Z,99807.97
2018-04-08T22:59:23.830Z,99806.27
2018-04-08T23:01:51.329Z,99805.48
2018-04-08T23:04:18.810Z,99806.95
2018-04-08T23:06:46.324Z,99814.73
2018-04-08T23:09:13.826Z,99812.92
2018-04-08T23:11:41.354Z,99818.97
2018-04-08T23:14:08.840Z,99824.73
2018-04-08T23:16:36.371Z,99823.95
2018-04-08T23:19:03.863Z,99820.02
2018-04-08T23:21:31.334Z,99820.00
2018-04-08T23:23:58.827Z,99819.97
2018-04-08T23:26:26.346Z,99822.35
2018-04-08T23:28:53.867Z,99826.68
2018-04-08T23:31:21.354Z,99818.45
2018-04-08T23:33:48.924Z,99817.69
2018-04-08T23:36:16.787Z,99820.21
2018-04-08T23:38:44.310Z,99823.73
2018-04-08T23:41:11.796Z,99821.91
2018-04-08T23:43:39.338Z,99819.92
2018-04-08T23:46:06.822Z,99818.58
2018-04-08T23:48:34.308Z,99817.95
2018-04-08T23:51:01.829Z,99810.07
2018-04-08T23:53:29.345Z,99806.56
2018-04-08T23:55:56.830Z,99804.73
2018-04-08T23:58:24.319Z,99808.10
